Time;durP1;ratioP1;P1;durP2;ratioP2;P2;SDS_P1;SDS_P2;PMS_P1;PMS_P2;Temp;Humidity;BMP_temperature;BMP_pressure;BME280_temperature;BME280_humidity;BME280_pressure;Samples;Min_cycle;Max_cycle;Signal;HPM_P1;HPM_P2
2022/06/09 00:00:52;;;;;;;2.75;2.17;;;16.60;99.90;;;;;;6287541;28;20275;-67
2022/06/09 00:04:03;;;;;;;2.88;2.60;;;16.70;99.90;;;;;;6286781;28;20294;-67
2022/06/09 00:07:14;;;;;;;2.67;2.47;;;16.70;99.90;;;;;;6286459;28;20274;-67
2022/06/09 00:10:23;;;;;;;2.55;2.08;;;16.60;99.90;;;;;;6308800;28;20282;-67
2022/06/09 00:13:28;;;;;;;5.22;2.33;;;16.50;99.90;;;;;;6311439;28;20282;-67
2022/06/09 00:16:33;;;;;;;3.13;2.40;;;16.50;99.90;;;;;;6311587;28;20290;-67
2022/06/09 00:19:40;;;;;;;6.43;2.03;;;16.50;99.90;;;;;;6311185;28;20298;-67
2022/06/09 00:22:45;;;;;;;2.33;2.22;;;16.50;99.90;;;;;;6311271;28;20290;-67
2022/06/09 00:25:50;;;;;;;4.70;2.25;;;16.50;99.90;;;;;;6311747;28;20573;-67
2022/06/09 00:28:56;;;;;;;2.40;2.30;;;16.50;99.90;;;;;;6311235;28;20298;-67
2022/06/09 00:32:01;;;;;;;6.25;2.10;;;16.50;99.90;;;;;;6311004;28;20274;-67
2022/06/09 00:35:09;;;;;;;3.63;2.50;;;16.50;99.90;;;;;;6311638;28;20290;-67
2022/06/09 00:38:15;;;;;;;4.75;2.40;;;16.50;99.90;;;;;;6311172;28;20294;-67
2022/06/09 00:41:20;;;;;;;4.63;2.50;;;16.40;99.90;;;;;;6311032;28;20274;-66
2022/06/09 00:44:28;;;;;;;4.40;3.10;;;16.40;99.90;;;;;;6310631;28;20295;-66
2022/06/09 00:47:33;;;;;;;3.78;2.97;;;16.50;99.90;;;;;;6310762;28;20605;-68
2022/06/09 00:50:40;;;;;;;3.13;2.70;;;16.50;99.90;;;;;;6311169;28;20270;-67
2022/06/09 00:53:46;;;;;;;4.22;2.60;;;16.40;99.90;;;;;;6310405;28;20477;-67
2022/06/09 00:56:55;;;;;;;3.10;2.70;;;16.40;99.90;;;;;;6310051;28;20295;-67
2022/06/09 01:00:10;;;;;;;2.38;2.30;;;16.30;99.90;;;;;;6310114;28;20274;-67
2022/06/09 01:03:17;;;;;;;5.70;2.45;;;16.40;99.90;;;;;;6310222;28;20317;-67
2022/06/09 01:06:30;;;;;;;2.05;2.00;;;16.40;99.90;;;;;;6310926;28;20351;-67
2022/06/09 01:09:36;;;;;;;2.92;2.33;;;16.40;99.90;;;;;;6308371;28;20302;-67
2022/06/09 01:12:44;;;;;;;2.72;2.55;;;16.20;99.90;;;;;;6307110;28;20298;-67
2022/06/09 01:15:54;;;;;;;6.88;2.20;;;16.20;99.90;;;;;;6310536;28;20569;-67
2022/06/09 01:19:19;;;;;;;3.35;2.33;;;16.20;99.90;;;;;;6310198;28;20290;-67
2022/06/09 01:22:46;;;;;;;10.10;2.55;;;16.20;99.90;;;;;;6310260;28;20468;-67
2022/06/09 01:26:16;;;;;;;3.92;2.55;;;16.20;99.90;;;;;;6310661;28;20274;-67
2022/06/09 01:29:49;;;;;;;2.33;2.25;;;16.20;99.90;;;;;;6310141;28;20295;-67
2022/06/09 01:32:59;;;;;;;3.63;2.25;;;16.20;99.90;;;;;;6307999;28;20294;-67
2022/06/09 01:36:12;;;;;;;2.35;2.28;;;16.10;99.90;;;;;;6310084;28;20290;-67
2022/06/09 01:39:17;;;;;;;2.63;2.33;;;16.20;99.90;;;;;;6309946;28;20294;-67
2022/06/09 01:42:30;;;;;;;2.40;2.30;;;16.10;99.90;;;;;;6309750;28;20597;-67
2022/06/09 01:45:42;;;;;;;2.67;2.47;;;16.10;99.90;;;;;;6310703;28;20274;-67
2022/06/09 01:48:51;;;;;;;2.72;2.45;;;16.10;99.90;;;;;;6309874;28;20294;-67
2022/06/09 01:51:57;;;;;;;2.55;2.45;;;16.10;99.90;;;;;;6309929;28;20271;-67
2022/06/09 01:55:04;;;;;;;3.10;2.50;;;16.20;99.90;;;;;;6310602;28;20271;-67
2022/06/09 01:58:15;;;;;;;2.30;2.20;;;16.10;99.90;;;;;;6309773;28;20317;-67
2022/06/09 02:01:26;;;;;;;5.55;2.55;;;16.10;99.90;;;;;;6310474;28;20554;-67
2022/06/09 02:04:36;;;;;;;2.78;2.58;;;16.10;99.90;;;;;;6309716;28;20286;-67
2022/06/09 02:07:42;;;;;;;2.60;2.42;;;16.10;99.90;;;;;;6310395;28;20303;-67
2022/06/09 02:10:53;;;;;;;3.75;2.60;;;16.00;99.90;;;;;;6315023;28;20526;-67
2022/06/09 02:13:58;;;;;;;2.85;2.65;;;16.00;99.90;;;;;;6314521;28;20294;-67
2022/06/09 02:17:05;;;;;;;3.50;2.50;;;16.00;99.90;;;;;;6313828;28;20294;-67
2022/06/09 02:20:17;;;;;;;2.78;2.58;;;15.90;99.90;;;;;;6314854;28;20270;-67
2022/06/09 02:23:23;;;;;;;4.53;2.45;;;15.90;99.90;;;;;;6314435;28;20606;-67
2022/06/09 02:26:28;;;;;;;2.47;2.38;;;15.90;99.90;;;;;;6314877;28;20274;-67
2022/06/09 02:29:34;;;;;;;2.50;2.38;;;15.90;99.90;;;;;;6314081;28;20299;-67
2022/06/09 02:32:39;;;;;;;2.63;2.63;;;15.90;99.90;;;;;;6314263;28;20290;-67
2022/06/09 02:35:45;;;;;;;5.57;2.25;;;15.80;99.90;;;;;;6314803;28;20270;-67
2022/06/09 02:38:51;;;;;;;2.63;2.35;;;15.70;99.90;;;;;;6314154;28;20329;-67
2022/06/09 02:41:55;;;;;;;4.40;2.53;;;15.70;99.90;;;;;;6313192;28;20270;-67
2022/06/09 02:45:02;;;;;;;3.00;2.50;;;15.70;99.90;;;;;;6314333;28;20291;-67
2022/06/09 02:48:13;;;;;;;4.32;2.80;;;15.80;99.90;;;;;;6313493;28;20297;-67
2022/06/09 02:51:28;;;;;;;2.80;2.70;;;15.70;99.90;;;;;;6314208;28;20266;-67
2022/06/09 02:54:33;;;;;;;3.17;2.78;;;15.70;99.90;;;;;;6313496;28;20303;-67
2022/06/09 02:57:38;;;;;;;2.75;2.60;;;15.70;99.90;;;;;;6313604;28;20307;-67
2022/06/09 03:00:44;;;;;;;7.85;2.75;;;15.60;99.90;;;;;;6313668;28;20291;-67
2022/06/09 03:03:49;;;;;;;2.80;2.70;;;15.70;99.90;;;;;;6310007;28;20290;-67
2022/06/09 03:06:55;;;;;;;2.83;2.67;;;15.70;99.90;;;;;;6313470;28;20449;-67
2022/06/09 03:10:00;;;;;;;2.90;2.70;;;15.70;99.90;;;;;;6291071;28;20328;-67
2022/06/09 03:13:07;;;;;;;2.85;2.60;;;15.70;99.90;;;;;;6279859;28;20612;-67
2022/06/09 03:16:15;;;;;;;2.65;2.55;;;15.70;99.90;;;;;;6288491;28;20440;-67
2022/06/09 03:19:20;;;;;;;3.10;2.83;;;15.70;99.90;;;;;;6287321;28;20295;-67
2022/06/09 03:22:27;;;;;;;2.88;2.63;;;15.70;99.90;;;;;;6287831;28;20627;-67
2022/06/09 03:25:31;;;;;;;2.53;2.53;;;15.70;99.90;;;;;;6288511;28;20291;-67
2022/06/09 03:28:37;;;;;;;2.85;2.65;;;15.70;99.90;;;;;;6287679;28;20370;-67
2022/06/09 03:31:42;;;;;;;2.75;2.75;;;15.70;99.90;;;;;;6288183;28;20270;-67
2022/06/09 03:34:47;;;;;;;2.92;2.72;;;15.80;99.90;;;;;;6287505;28;20294;-67
2022/06/09 03:37:53;;;;;;;2.83;2.60;;;15.70;99.90;;;;;;6286845;28;20463;-67
2022/06/09 03:40:58;;;;;;;2.80;2.70;;;15.70;99.90;;;;;;6287870;28;20268;-67
2022/06/09 03:44:04;;;;;;;3.47;3.22;;;15.80;99.90;;;;;;6287199;28;20294;-67
2022/06/09 03:47:11;;;;;;;2.70;2.58;;;15.70;99.90;;;;;;6287328;28;20275;-67
2022/06/09 03:50:20;;;;;;;5.03;2.97;;;15.80;99.90;;;;;;6287847;28;20275;-67
2022/06/09 03:53:27;;;;;;;2.28;2.28;;;15.70;99.90;;;;;;6286768;28;20308;-67
2022/06/09 03:56:32;;;;;;;3.47;2.47;;;15.50;99.90;;;;;;6287622;28;20275;-67
2022/06/09 03:59:37;;;;;;;2.65;2.55;;;15.60;99.90;;;;;;6286907;28;20483;-67
2022/06/09 04:02:46;;;;;;;2.47;2.38;;;15.60;99.90;;;;;;6286639;28;20294;-67
2022/06/09 04:05:51;;;;;;;3.35;2.92;;;15.70;99.90;;;;;;6287025;28;20271;-67
2022/06/09 04:08:59;;;;;;;3.33;3.03;;;15.70;99.90;;;;;;6287867;28;20318;-67
2022/06/09 04:12:05;;;;;;;2.72;2.53;;;15.80;99.90;;;;;;6304990;28;20457;-67
2022/06/09 04:15:17;;;;;;;4.63;2.80;;;15.60;99.90;;;;;;6305154;28;20274;-67
2022/06/09 04:18:22;;;;;;;3.00;2.50;;;15.70;99.90;;;;;;6311278;28;20353;-67
2022/06/09 04:21:30;;;;;;;3.38;3.28;;;15.70;99.90;;;;;;6311706;28;20274;-67
2022/06/09 04:24:36;;;;;;;3.40;2.97;;;15.80;99.90;;;;;;6310974;28;20303;-67
2022/06/09 04:27:41;;;;;;;2.63;2.45;;;15.90;99.90;;;;;;6311219;28;20307;-67
2022/06/09 04:30:47;;;;;;;4.70;2.67;;;15.90;99.90;;;;;;6310438;28;20459;-67
2022/06/09 04:33:52;;;;;;;5.22;2.50;;;15.90;99.90;;;;;;6310468;28;20294;-67
2022/06/09 04:36:57;;;;;;;4.20;2.90;;;16.00;99.90;;;;;;6311258;28;20270;-67
2022/06/09 04:40:04;;;;;;;6.05;2.97;;;16.00;99.90;;;;;;6310337;28;20298;-67
2022/06/09 04:43:12;;;;;;;7.10;2.58;;;16.00;99.90;;;;;;6310364;28;20294;-68
2022/06/09 04:46:19;;;;;;;3.22;2.90;;;16.00;99.90;;;;;;6311429;28;20270;-67
2022/06/09 04:49:25;;;;;;;3.13;2.92;;;16.10;99.90;;;;;;6309417;28;20298;-68
2022/06/09 04:52:30;;;;;;;2.53;2.45;;;16.10;99.90;;;;;;6310416;28;20298;-68
2022/06/09 04:55:37;;;;;;;11.35;2.35;;;16.20;99.90;;;;;;6311015;28;20271;-67
2022/06/09 04:58:42;;;;;;;2.80;2.60;;;16.30;99.90;;;;;;6310097;28;20303;-68
2022/06/09 05:01:47;;;;;;;4.97;2.20;;;16.40;99.90;;;;;;6310662;28;20478;-67
2022/06/09 05:04:52;;;;;;;2.22;2.03;;;16.40;99.90;;;;;;6310644;28;20290;-68
2022/06/09 05:07:57;;;;;;;5.63;2.70;;;16.60;99.90;;;;;;6309781;28;20302;-68
2022/06/09 05:11:04;;;;;;;2.58;2.40;;;16.50;99.90;;;;;;6296736;28;20546;-68
2022/06/09 05:14:09;;;;;;;2.17;2.13;;;16.50;99.90;;;;;;6285297;28;20295;-68
2022/06/09 05:17:15;;;;;;;2.17;2.00;;;16.50;99.90;;;;;;6285312;28;20492;-69
2022/06/09 05:20:23;;;;;;;2.30;2.20;;;16.60;99.90;;;;;;6285462;28;20303;-69
2022/06/09 05:23:29;;;;;;;3.30;2.40;;;17.10;99.90;;;;;;6284916;28;20295;-69
2022/06/09 05:26:36;;;;;;;2.53;2.30;;;17.30;99.90;;;;;;6285913;28;20293;-68
2022/06/09 05:29:42;;;;;;;2.30;2.13;;;17.30;99.90;;;;;;6285181;28;20303;-68
2022/06/09 05:32:47;;;;;;;5.15;2.05;;;17.30;99.90;;;;;;6284694;28;20296;-67
2022/06/09 05:35:52;;;;;;;3.00;2.17;;;17.30;99.90;;;;;;6285165;28;20272;-67
2022/06/09 05:45:44;;;;;;;2.53;2.33;;;17.60;99.90;;;;;;6290694;28;20271;-67
2022/06/09 05:48:49;;;;;;;3.00;2.10;;;17.90;99.90;;;;;;6289687;28;20303;-67
2022/06/09 05:51:54;;;;;;;2.80;2.47;;;17.90;99.90;;;;;;6290004;28;20271;-67
2022/06/09 05:54:59;;;;;;;2.38;2.20;;;18.00;99.90;;;;;;6289755;28;20302;-68
2022/06/09 05:58:06;;;;;;;5.13;2.20;;;18.00;99.90;;;;;;6289630;28;20573;-68
2022/06/09 06:01:13;;;;;;;3.13;2.22;;;17.90;99.90;;;;;;6289626;28;20585;-69
2022/06/09 06:04:18;;;;;;;2.22;2.10;;;17.80;99.90;;;;;;6289536;28;20534;-67
2022/06/09 06:07:23;;;;;;;5.82;2.20;;;17.90;99.90;;;;;;6289389;28;20295;-68
2022/06/09 06:10:29;;;;;;;2.20;2.10;;;18.00;99.90;;;;;;6312446;28;20585;-67
2022/06/09 06:13:35;;;;;;;2.38;2.22;;;18.00;99.90;;;;;;6313990;28;20294;-67
2022/06/09 06:16:41;;;;;;;2.80;2.60;;;18.10;99.90;;;;;;6314475;28;20459;-66
2022/06/09 06:19:46;;;;;;;2.72;2.40;;;18.10;99.90;;;;;;6314081;28;20299;-67
2022/06/09 06:22:51;;;;;;;2.20;2.10;;;17.90;99.90;;;;;;6313849;28;20585;-67
2022/06/09 06:25:57;;;;;;;5.82;2.65;;;17.90;99.90;;;;;;6314292;28;20271;-67
2022/06/09 06:29:06;;;;;;;2.35;2.25;;;18.00;99.90;;;;;;6313916;28;20294;-67
2022/06/09 06:32:11;;;;;;;2.40;2.17;;;18.00;99.90;;;;;;6313735;28;20270;-67
2022/06/09 06:35:17;;;;;;;2.80;2.40;;;17.90;99.90;;;;;;6314084;28;20274;-68
2022/06/09 06:38:23;;;;;;;2.25;2.15;;;17.90;99.90;;;;;;6313470;28;20298;-67
2022/06/09 06:41:29;;;;;;;2.63;2.42;;;17.90;99.90;;;;;;6313735;28;20306;-67
2022/06/09 06:44:36;;;;;;;2.50;2.28;;;18.00;99.90;;;;;;6313293;28;20294;-67
2022/06/09 06:47:41;;;;;;;4.90;2.42;;;18.10;99.90;;;;;;6312793;28;20294;-67
2022/06/09 06:50:46;;;;;;;2.88;2.15;;;18.10;99.90;;;;;;6313618;28;20274;-67
2022/06/09 06:53:51;;;;;;;2.75;2.53;;;18.00;99.90;;;;;;6311903;28;20294;-67
2022/06/09 06:56:56;;;;;;;2.30;2.20;;;18.00;99.90;;;;;;6313554;28;20542;-67
2022/06/09 07:00:04;;;;;;;2.38;2.28;;;17.90;99.90;;;;;;6312257;28;20294;-67
2022/06/09 07:03:13;;;;;;;2.60;2.25;;;17.90;99.90;;;;;;6305024;28;20602;-67
2022/06/09 07:06:36;;;;;;;3.80;2.30;;;17.90;99.90;;;;;;6313424;28;20271;-68
2022/06/09 07:09:41;;;;;;;1.80;1.80;;;17.90;99.90;;;;;;6309642;28;20589;-68
2022/06/09 07:12:47;;;;;;;2.22;2.05;;;18.00;99.90;;;;;;6310263;28;20478;-67
2022/06/09 07:15:53;;;;;;;3.30;2.22;;;18.30;99.90;;;;;;6312941;28;20270;-67
2022/06/09 07:19:04;;;;;;;1.95;1.95;;;18.20;99.90;;;;;;6312786;28;20294;-67
2022/06/09 07:22:09;;;;;;;3.85;2.20;;;18.20;99.90;;;;;;6311702;28;20294;-68
2022/06/09 07:25:19;;;;;;;3.78;2.00;;;18.40;99.90;;;;;;6312744;28;20266;-67
2022/06/09 07:28:25;;;;;;;2.20;1.95;;;18.60;99.90;;;;;;6312449;28;20293;-67
2022/06/09 07:31:32;;;;;;;2.38;2.20;;;18.50;99.90;;;;;;6312926;28;20281;-67
2022/06/09 07:34:37;;;;;;;3.00;2.28;;;18.50;99.90;;;;;;6312460;28;20294;-66
2022/06/09 07:37:43;;;;;;;6.55;2.50;;;18.50;99.90;;;;;;6311910;28;20302;-69
2022/06/09 07:40:48;;;;;;;2.75;2.22;;;18.40;99.90;;;;;;6312813;28;20362;-68
2022/06/09 07:44:04;;;;;;;1.95;1.95;;;18.60;99.90;;;;;;6312073;28;20290;-69
2022/06/09 07:47:11;;;;;;;3.25;2.30;;;18.60;99.90;;;;;;6311992;28;20338;-68
2022/06/09 07:50:17;;;;;;;2.20;2.10;;;18.80;99.90;;;;;;6312493;28;20279;-67
2022/06/09 07:53:23;;;;;;;2.42;2.05;;;18.80;99.90;;;;;;6311513;28;20294;-67
2022/06/09 07:56:32;;;;;;;2.35;2.20;;;19.00;99.90;;;;;;6312300;28;20271;-67
2022/06/09 07:59:37;;;;;;;1.98;1.98;;;19.00;99.90;;;;;;6311575;28;20294;-67
2022/06/09 08:02:44;;;;;;;2.22;2.10;;;18.90;99.90;;;;;;6311350;28;20294;-67
2022/06/09 08:05:49;;;;;;;2.22;2.13;;;18.90;99.90;;;;;;6311895;28;20270;-67
2022/06/09 08:09:14;;;;;;;2.47;2.35;;;18.80;99.90;;;;;;6293917;28;20379;-67
2022/06/09 08:12:19;;;;;;;2.95;2.50;;;19.00;99.90;;;;;;6286175;28;20590;-67
2022/06/09 08:15:27;;;;;;;2.13;2.10;;;19.10;99.90;;;;;;6286914;28;20535;-68
2022/06/09 08:18:33;;;;;;;3.67;2.13;;;18.90;99.90;;;;;;6286522;28;20300;-69
2022/06/09 08:21:38;;;;;;;2.15;2.13;;;19.00;99.90;;;;;;6286561;28;20574;-68
2022/06/09 08:24:56;;;;;;;2.40;2.10;;;19.20;99.90;;;;;;6286194;28;20307;-69
2022/06/09 08:28:03;;;;;;;5.13;2.00;;;19.30;99.90;;;;;;6286213;28;20296;-69
2022/06/09 08:31:09;;;;;;;3.10;2.38;;;19.10;99.90;;;;;;6278663;28;20378;-68
2022/06/09 08:34:16;;;;;;;2.17;2.10;;;18.80;99.90;;;;;;6286015;28;20299;-69
2022/06/09 08:37:20;;;;;;;2.70;2.53;;;18.90;99.90;;;;;;6285736;28;20377;-69
2022/06/09 08:40:33;;;;;;;4.22;2.10;;;19.00;99.90;;;;;;6286028;28;20274;-69
2022/06/09 08:43:44;;;;;;;2.88;2.50;;;19.00;99.90;;;;;;6285563;28;20298;-67
2022/06/09 08:46:57;;;;;;;3.80;3.50;;;19.00;99.90;;;;;;6286422;28;20288;-69
2022/06/09 08:50:12;;;;;;;2.40;2.40;;;19.00;99.90;;;;;;6285428;28;20550;-68
2022/06/09 08:53:25;;;;;;;2.50;2.33;;;19.00;99.90;;;;;;6285485;28;20295;-68
2022/06/09 08:56:36;;;;;;;4.68;2.30;;;19.10;99.90;;;;;;6286047;28;20266;-69
2022/06/09 08:59:42;;;;;;;2.33;2.13;;;19.00;99.90;;;;;;6285729;28;20298;-68
2022/06/09 09:02:52;;;;;;;2.03;2.03;;;19.10;99.90;;;;;;6285219;28;20295;-68
2022/06/09 09:06:07;;;;;;;4.13;2.28;;;19.10;99.90;;;;;;6285589;28;20562;-67
2022/06/09 09:09:16;;;;;;;2.10;2.10;;;19.20;99.90;;;;;;6284252;28;20308;-69
2022/06/09 09:12:35;;;;;;;4.20;2.42;;;19.20;99.90;;;;;;6284780;28;20291;-68
2022/06/09 09:15:46;;;;;;;2.60;2.40;;;19.20;99.90;;;;;;6285237;28;20267;-68
2022/06/09 09:18:55;;;;;;;3.92;2.92;;;19.10;99.90;;;;;;6285299;28;20323;-69
2022/06/09 09:22:11;;;;;;;2.60;2.40;;;19.10;99.90;;;;;;6285056;28;20290;-68
2022/06/09 09:25:23;;;;;;;3.35;2.85;;;19.10;99.90;;;;;;6285895;28;20433;-68
2022/06/09 09:28:43;;;;;;;2.95;2.85;;;19.00;99.90;;;;;;6284845;28;20315;-67
2022/06/09 09:31:52;;;;;;;8.77;7.43;;;19.10;99.90;;;;;;6285153;28;20307;-69
2022/06/09 09:34:58;;;;;;;3.83;2.92;;;19.00;99.90;;;;;;6284826;28;20394;-69
2022/06/09 09:38:05;;;;;;;6.97;2.90;;;19.00;99.90;;;;;;6284751;28;20291;-67
2022/06/09 09:41:28;;;;;;;2.55;2.53;;;19.10;99.90;;;;;;6285571;28;20274;-69
2022/06/09 09:44:33;;;;;;;3.20;2.70;;;19.00;99.90;;;;;;6284922;28;20295;-68
2022/06/09 09:47:45;;;;;;;2.10;2.10;;;19.00;99.90;;;;;;6285040;28;20290;-69
2022/06/09 09:50:52;;;;;;;3.33;3.03;;;19.10;99.90;;;;;;6285716;28;20275;-67
2022/06/09 09:53:59;;;;;;;3.17;3.05;;;19.10;99.90;;;;;;6284461;28;20299;-67
2022/06/09 09:57:14;;;;;;;3.08;2.58;;;19.20;99.90;;;;;;6284780;28;20354;-69
2022/06/09 10:00:27;;;;;;;2.70;2.50;;;19.20;99.90;;;;;;6285380;28;20268;-67
2022/06/09 10:15:17;;;;;;;5.05;3.10;;;19.40;99.90;;;;;;6283753;28;20433;-67
2022/06/09 10:18:44;;;;;;;2.95;2.90;;;19.40;99.90;;;;;;6284570;28;20299;-68
2022/06/09 10:22:20;;;;;;;3.35;2.40;;;19.50;99.90;;;;;;6284187;28;20570;-68
2022/06/09 10:25:31;;;;;;;2.30;2.28;;;19.60;99.90;;;;;;6284400;28;20275;-68
2022/06/09 10:28:47;;;;;;;4.07;2.75;;;19.70;99.90;;;;;;6284559;28;20295;-69
2022/06/09 10:31:57;;;;;;;4.22;2.45;;;19.70;99.90;;;;;;6289389;28;20275;-68
2022/06/09 10:35:08;;;;;;;5.25;3.30;;;19.70;99.90;;;;;;6288195;28;20275;-68
2022/06/09 10:38:25;;;;;;;3.00;2.75;;;19.80;99.90;;;;;;6288525;28;20578;-68
2022/06/09 10:41:40;;;;;;;2.67;2.40;;;19.70;99.90;;;;;;6288839;28;20554;-68
2022/06/09 10:44:49;;;;;;;3.92;2.65;;;19.80;99.90;;;;;;6287808;28;20303;-68
2022/06/09 10:55:19;;;;;;;3.58;2.80;;;19.90;99.90;;;;;;6288109;28;20303;-68
2022/06/09 10:58:31;;;;;;;2.20;2.20;;;20.00;99.90;;;;;;6288292;28;20393;-68
2022/06/09 11:01:37;;;;;;;5.15;2.72;;;20.10;99.90;;;;;;6288683;28;20271;-68
2022/06/09 11:04:44;;;;;;;2.70;2.20;;;20.20;99.90;;;;;;6287938;28;20598;-68
2022/06/09 11:08:00;;;;;;;2.03;2.03;;;20.10;99.90;;;;;;6287463;28;20315;-68
2022/06/09 11:11:15;;;;;;;5.95;5.60;;;20.20;99.90;;;;;;6288399;28;20267;-69
2022/06/09 11:14:39;;;;;;;4.18;3.00;;;20.30;99.90;;;;;;6288082;28;20303;-69
2022/06/09 11:18:07;;;;;;;2.60;2.40;;;20.30;99.90;;;;;;6287374;28;20295;-69
2022/06/09 11:21:20;;;;;;;2.45;2.30;;;20.50;99.90;;;;;;6288224;28;20270;-69
2022/06/09 11:24:33;;;;;;;3.20;2.90;;;20.50;99.90;;;;;;6287458;28;20302;-69
2022/06/09 11:27:48;;;;;;;2.80;2.67;;;20.70;99.90;;;;;;6287544;28;20295;-68
2022/06/09 11:31:09;;;;;;;2.42;2.33;;;20.70;99.50;;;;;;6287812;28;20284;-68
2022/06/09 11:34:34;;;;;;;2.55;2.30;;;20.70;99.60;;;;;;6287498;28;20303;-68
2022/06/09 11:37:55;;;;;;;2.35;2.28;;;20.80;99.70;;;;;;6287270;28;20295;-68
2022/06/09 11:41:10;;;;;;;2.67;2.20;;;20.70;99.90;;;;;;6287441;28;20275;-68
2022/06/09 11:44:39;;;;;;;2.63;2.45;;;20.80;99.50;;;;;;6286703;28;20535;-68
2022/06/09 11:47:44;;;;;;;2.58;2.20;;;20.80;99.60;;;;;;6287040;28;20299;-67
2022/06/09 11:50:52;;;;;;;2.30;2.20;;;20.90;99.70;;;;;;6287091;28;20263;-67
2022/06/09 11:54:00;;;;;;;3.80;2.47;;;20.90;99.20;;;;;;6287004;28;20298;-67
2022/06/09 11:57:43;;;;;;;3.38;3.10;;;21.00;99.60;;;;;;6286558;28;20546;-68
2022/06/09 12:00:48;;;;;;;7.30;3.00;;;21.00;99.10;;;;;;6287000;28;20404;-68
2022/06/09 12:04:12;;;;;;;2.55;2.45;;;20.90;98.90;;;;;;6286176;28;20294;-67
2022/06/09 12:07:38;;;;;;;2.78;2.58;;;21.00;99.30;;;;;;6286452;28;20546;-67
2022/06/09 12:11:11;;;;;;;2.40;2.00;;;21.00;99.20;;;;;;6311856;28;20306;-67
2022/06/09 12:14:19;;;;;;;3.97;2.45;;;21.10;98.80;;;;;;6311138;28;20609;-67
2022/06/09 12:17:33;;;;;;;2.80;2.70;;;21.20;98.30;;;;;;6311115;28;20290;-67
2022/06/09 12:20:43;;;;;;;8.80;3.17;;;21.20;98.50;;;;;;6311575;28;20270;-69
2022/06/09 12:24:26;;;;;;;2.88;2.70;;;21.20;98.30;;;;;;6310394;28;20298;-67
2022/06/09 12:27:43;;;;;;;3.40;2.80;;;21.20;98.00;;;;;;6311163;28;20298;-69
2022/06/09 12:31:09;;;;;;;3.20;1.98;;;21.30;98.10;;;;;;6311097;28;20274;-68
2022/06/09 12:34:19;;;;;;;3.63;2.20;;;21.40;97.60;;;;;;6310777;28;20302;-68
2022/06/09 12:37:28;;;;;;;2.47;2.17;;;21.40;97.40;;;;;;6310618;28;20286;-68
2022/06/09 12:40:42;;;;;;;1.98;1.90;;;21.40;97.80;;;;;;6310978;28;20452;-68
2022/06/09 12:43:59;;;;;;;2.20;2.20;;;21.40;97.00;;;;;;6310580;28;20298;-68
2022/06/09 12:47:16;;;;;;;10.15;2.40;;;21.50;97.50;;;;;;6309897;28;20291;-68
2022/06/09 12:50:34;;;;;;;6.95;2.10;;;21.40;97.70;;;;;;6310601;28;20457;-68
2022/06/09 12:53:41;;;;;;;2.13;2.13;;;21.50;97.10;;;;;;6309736;28;20329;-68
2022/06/09 12:57:00;;;;;;;2.90;2.10;;;21.60;97.30;;;;;;6310409;28;20267;-68
2022/06/09 13:00:13;;;;;;;2.60;2.30;;;21.60;96.80;;;;;;6309801;28;20417;-68
2022/06/09 13:03:30;;;;;;;2.95;2.17;;;21.60;96.70;;;;;;6307989;28;20303;-68
2022/06/09 13:06:38;;;;;;;2.17;2.08;;;21.50;96.80;;;;;;6310214;28;20290;-68
2022/06/09 13:09:43;;;;;;;3.08;2.17;;;21.50;96.40;;;;;;6293468;28;20303;-68
2022/06/09 13:13:04;;;;;;;2.20;2.20;;;21.70;96.40;;;;;;6285341;28;20249;-68
2022/06/09 13:16:16;;;;;;;4.03;2.17;;;21.90;95.90;;;;;;6285620;28;20279;-68
2022/06/09 13:19:25;;;;;;;2.03;2.00;;;21.90;96.40;;;;;;6285181;28;20294;-68
2022/06/09 13:22:32;;;;;;;5.47;4.13;;;22.00;96.20;;;;;;6284928;28;20294;-68
2022/06/09 13:25:38;;;;;;;4.28;2.80;;;22.00;95.90;;;;;;6285371;28;20295;-68
2022/06/09 13:28:50;;;;;;;4.78;2.20;;;22.10;95.50;;;;;;6284976;28;20314;-68
2022/06/09 13:32:19;;;;;;;2.17;2.13;;;22.10;95.80;;;;;;6285221;28;20271;-68
2022/06/09 13:35:37;;;;;;;2.20;2.00;;;22.20;95.30;;;;;;6284067;28;20290;-67
2022/06/09 13:38:42;;;;;;;2.90;2.08;;;22.30;95.20;;;;;;6284345;28;20298;-68
2022/06/09 13:41:48;;;;;;;2.08;1.90;;;22.40;94.80;;;;;;6285328;28;20276;-68
2022/06/09 13:45:26;;;;;;;2.05;1.90;;;22.40;95.20;;;;;;6284776;28;20480;-68
2022/06/09 13:48:45;;;;;;;2.42;2.33;;;23.40;93.70;;;;;;6238783;28;20302;-68
2022/06/09 13:52:03;;;;;;;3.17;2.17;;;24.20;92.00;;;;;;6284556;28;20276;-68
2022/06/09 13:55:14;;;;;;;3.60;1.90;;;24.70;90.40;;;;;;6276399;28;20403;-68
2022/06/09 13:58:19;;;;;;;3.47;3.38;;;24.60;90.30;;;;;;6284247;28;20303;-68
2022/06/09 14:01:26;;;;;;;2.20;2.10;;;24.10;91.00;;;;;;6284891;28;20270;-68
2022/06/09 14:04:37;;;;;;;2.42;2.05;;;24.40;90.60;;;;;;6288374;28;20291;-68
2022/06/09 14:07:43;;;;;;;2.50;2.20;;;24.70;90.00;;;;;;6288015;28;20291;-68
2022/06/09 14:10:49;;;;;;;2.20;2.10;;;24.60;88.90;;;;;;6308256;28;20314;-68
2022/06/09 14:13:55;;;;;;;2.10;2.00;;;24.90;88.40;;;;;;6314087;28;20294;-68
2022/06/09 14:17:03;;;;;;;3.40;2.17;;;24.50;87.50;;;;;;6314054;28;20274;-68
2022/06/09 14:20:13;;;;;;;3.60;2.30;;;24.20;89.10;;;;;;6312573;28;20270;-68
2022/06/09 14:23:21;;;;;;;3.40;2.13;;;23.90;89.30;;;;;;6312188;28;20290;-68
2022/06/09 14:26:31;;;;;;;2.13;2.03;;;23.90;90.40;;;;;;6313368;28;20290;-68
2022/06/09 14:29:36;;;;;;;2.33;1.85;;;23.80;89.50;;;;;;6312558;28;20302;-68
2022/06/09 14:32:43;;;;;;;2.92;1.88;;;23.80;90.40;;;;;;6313363;28;20302;-68
2022/06/09 14:35:49;;;;;;;3.60;2.53;;;23.70;90.90;;;;;;6313782;28;20321;-68
2022/06/09 14:38:54;;;;;;;3.53;2.17;;;23.50;90.60;;;;;;6311549;28;20298;-68
2022/06/09 14:42:00;;;;;;;2.55;1.85;;;23.60;90.40;;;;;;6313113;28;20298;-68
2022/06/09 14:45:06;;;;;;;2.67;2.00;;;24.00;89.90;;;;;;6312625;28;20274;-67
2022/06/09 14:48:21;;;;;;;3.03;1.92;;;24.50;88.60;;;;;;6312991;28;20299;-69
2022/06/09 14:51:27;;;;;;;2.88;2.67;;;24.90;87.70;;;;;;6312537;28;20530;-68
2022/06/09 14:54:33;;;;;;;2.10;1.92;;;25.10;86.40;;;;;;6312703;28;20298;-68
2022/06/09 14:57:39;;;;;;;3.13;1.98;;;24.70;86.80;;;;;;6313143;28;20302;-68
2022/06/09 15:00:46;;;;;;;2.28;2.15;;;24.40;86.10;;;;;;6312694;28;20318;-69
2022/06/09 15:03:53;;;;;;;2.05;2.05;;;24.10;88.30;;;;;;6312705;28;20293;-68
2022/06/09 15:06:58;;;;;;;1.98;1.88;;;23.80;88.70;;;;;;6312818;28;20310;-68
2022/06/09 15:10:05;;;;;;;2.25;2.08;;;23.70;90.00;;;;;;6306634;28;20300;-67
2022/06/09 15:13:11;;;;;;;2.17;2.05;;;23.60;89.30;;;;;;6287463;28;20488;-68
2022/06/09 15:16:17;;;;;;;2.17;1.85;;;23.50;88.70;;;;;;6287927;28;20574;-68
2022/06/09 15:19:44;;;;;;;5.07;2.70;;;23.60;89.80;;;;;;6287084;28;20302;-67
2022/06/09 15:22:56;;;;;;;3.47;3.03;;;24.00;88.50;;;;;;6287379;28;20295;-68
2022/06/09 15:26:01;;;;;;;2.17;2.17;;;24.10;87.70;;;;;;6288050;28;20291;-68
2022/06/09 15:29:07;;;;;;;2.28;2.08;;;24.50;85.30;;;;;;6287501;28;20295;-68
2022/06/09 15:32:12;;;;;;;2.85;2.10;;;24.30;86.30;;;;;;6287455;28;20271;-68
2022/06/09 15:35:20;;;;;;;2.40;2.30;;;24.40;86.80;;;;;;6287148;28;20271;-68
2022/06/09 15:38:26;;;;;;;3.90;1.90;;;24.60;85.60;;;;;;6287256;28;20303;-68
2022/06/09 15:41:32;;;;;;;2.10;1.85;;;24.80;84.60;;;;;;6287646;28;20275;-67
2022/06/09 15:44:37;;;;;;;4.30;2.15;;;24.50;84.10;;;;;;6286710;28;20303;-67
2022/06/09 15:47:43;;;;;;;2.10;2.00;;;24.40;86.00;;;;;;6286952;28;20296;-67
2022/06/09 15:50:51;;;;;;;5.28;2.00;;;24.30;86.50;;;;;;6286959;28;20267;-68
2022/06/09 15:53:56;;;;;;;2.20;2.10;;;24.00;85.30;;;;;;6286649;28;20598;-69
2022/06/09 15:57:02;;;;;;;3.30;2.17;;;23.90;86.80;;;;;;6286067;28;20371;-67
2022/06/09 16:00:12;;;;;;;5.03;3.15;;;23.60;87.40;;;;;;6287068;28;20271;-67
2022/06/09 16:03:18;;;;;;;2.38;2.38;;;23.60;88.90;;;;;;6286298;28;20295;-68
2022/06/09 16:06:25;;;;;;;2.67;2.58;;;23.40;88.10;;;;;;6286775;28;20275;-69
2022/06/09 16:09:30;;;;;;;2.38;2.38;;;23.40;89.80;;;;;;6285593;28;20308;-68
2022/06/09 16:12:36;;;;;;;2.40;2.30;;;23.20;88.60;;;;;;6282121;28;20295;-68
2022/06/09 16:15:43;;;;;;;2.00;2.00;;;23.20;89.40;;;;;;6285628;28;20267;-68
2022/06/09 16:18:48;;;;;;;2.40;2.15;;;23.20;89.90;;;;;;6286119;28;20375;-67
2022/06/09 16:21:55;;;;;;;2.15;2.15;;;23.10;88.80;;;;;;6285741;28;20473;-68
2022/06/09 16:25:01;;;;;;;2.30;2.30;;;23.30;90.20;;;;;;6285819;28;20299;-68
2022/06/09 16:28:08;;;;;;;5.35;2.40;;;23.20;90.10;;;;;;6284271;28;20527;-67
2022/06/09 16:31:15;;;;;;;2.53;2.35;;;23.10;89.50;;;;;;6285583;28;20271;-69
2022/06/09 16:34:21;;;;;;;2.42;2.33;;;23.20;90.30;;;;;;6285791;28;20330;-68
2022/06/09 16:37:28;;;;;;;2.67;2.58;;;23.20;90.10;;;;;;6285342;28;20299;-67
2022/06/09 16:40:37;;;;;;;4.03;3.42;;;23.40;90.50;;;;;;6285936;28;20290;-67
2022/06/09 16:43:42;;;;;;;3.83;3.05;;;23.30;90.30;;;;;;6285640;28;20294;-67
2022/06/09 16:46:47;;;;;;;2.83;2.47;;;23.40;90.20;;;;;;6285795;28;20270;-69
2022/06/09 16:49:53;;;;;;;3.95;2.53;;;23.20;90.40;;;;;;6285061;28;20478;-68